createdAt,value
2022-11-27T00:03:24.801Z,2.80
2022-11-27T00:08:29.809Z,2.67
2022-11-27T00:13:33.357Z,2.70
2022-11-27T00:18:37.688Z,2.53
2022-11-27T00:23:43.126Z,2.80
2022-11-27T00:28:47.363Z,2.60
2022-11-27T00:33:51.280Z,2.60
2022-11-27T00:38:56.970Z,2.83
2022-11-27T00:44:00.777Z,2.60
2022-11-27T00:49:07.405Z,2.60
2022-11-27T00:54:12.397Z,2.60
2022-11-27T00:59:16.055Z,2.80
2022-11-27T01:04:19.852Z,2.50
2022-11-27T01:09:24.845Z,2.60
2022-11-27T01:14:28.525Z,2.50
2022-11-27T01:19:32.247Z,2.78
2022-11-27T01:24:37.279Z,2.50
2022-11-27T01:29:41.098Z,2.35
2022-11-27T01:34:44.690Z,2.85
2022-11-27T01:39:49.688Z,2.42
2022-11-27T01:44:58.002Z,2.55
2022-11-27T01:50:12.359Z,2.47
2022-11-27T01:55:25.604Z,2.50
2022-11-27T02:00:29.545Z,2.45
2022-11-27T02:05:33.789Z,2.90
2022-11-27T02:10:50.885Z,2.40
2022-11-27T02:16:08.467Z,2.43
2022-11-27T02:21:23.968Z,2.47
2022-11-27T02:27:45.182Z,2.35
2022-11-27T02:32:58.839Z,2.58
2022-11-27T02:38:10.736Z,2.60
2022-11-27T02:43:22.054Z,2.47
2022-11-27T02:48:37.172Z,2.50
2022-11-27T02:53:49.220Z,2.40
2022-11-27T02:58:54.395Z,2.20
2022-11-27T03:04:03.943Z,2.28
2022-11-27T03:09:13.454Z,2.30
2022-11-27T03:14:17.842Z,2.50
2022-11-27T03:19:30.971Z,2.25
2022-11-27T03:24:37.033Z,2.22
2022-11-27T03:29:49.236Z,2.30
2022-11-27T03:34:54.672Z,2.28
2022-11-27T03:39:58.182Z,2.38
2022-11-27T03:45:11.864Z,2.20
2022-11-27T03:50:33.290Z,2.10
2022-11-27T03:55:49.516Z,2.13
2022-11-27T04:00:54.723Z,2.10
2022-11-27T04:06:00.100Z,2.13
2022-11-27T04:11:03.750Z,2.10
2022-11-27T04:16:09.249Z,2.20
2022-11-27T04:21:14.216Z,2.03
2022-11-27T04:26:17.992Z,2.03
2022-11-27T04:31:21.568Z,2.10
2022-11-27T04:36:26.596Z,2.30
2022-11-27T04:41:30.135Z,2.10
2022-11-27T04:46:33.909Z,2.00
2022-11-27T04:51:38.928Z,1.90
2022-11-27T04:56:42.499Z,2.03
2022-11-27T05:01:46.096Z,1.90
2022-11-27T05:06:51.408Z,1.80
2022-11-27T05:11:55.002Z,1.90
2022-11-27T05:17:00.631Z,2.03
2022-11-27T05:22:05.743Z,1.90
2022-11-27T05:27:09.267Z,1.90
2022-11-27T05:32:12.761Z,1.70
2022-11-27T05:37:19.631Z,1.90
2022-11-27T05:42:23.649Z,1.90
2022-11-27T05:47:27.535Z,1.95
2022-11-27T05:52:32.583Z,1.77
2022-11-27T05:57:36.388Z,1.83
2022-11-27T06:02:40.163Z,1.83
2022-11-27T06:07:45.494Z,1.95
2022-11-27T06:12:49.208Z,1.80
2022-11-27T06:17:52.874Z,1.90
2022-11-27T06:22:58.694Z,1.83
2022-11-27T06:28:02.303Z,1.90
2022-11-27T06:33:06.051Z,1.73
2022-11-27T06:38:11.068Z,1.83
2022-11-27T06:43:14.619Z,1.80
2022-11-27T06:48:18.138Z,1.60
2022-11-27T06:53:23.127Z,1.63
2022-11-27T06:58:31.039Z,1.65
2022-11-27T07:03:35.345Z,1.80
2022-11-27T07:08:40.757Z,1.63
2022-11-27T07:13:44.387Z,1.70
2022-11-27T07:18:53.186Z,1.70
2022-11-27T07:23:58.781Z,1.70
2022-11-27T07:29:02.438Z,1.60
2022-11-27T07:34:11.716Z,1.67
2022-11-27T07:39:28.740Z,2.05
2022-11-27T07:44:43.204Z,1.67
2022-11-27T07:49:46.853Z,1.73
2022-11-27T07:54:51.833Z,1.67
2022-11-27T07:59:55.651Z,1.70
2022-11-27T08:04:59.272Z,1.55
2022-11-27T08:10:04.718Z,1.50
2022-11-27T08:15:10.803Z,1.73
2022-11-27T08:20:14.809Z,1.40
2022-11-27T08:25:20.246Z,1.70
2022-11-27T08:30:24.507Z,1.52
2022-11-27T08:35:28.965Z,1.70
2022-11-27T08:40:34.089Z,1.70
2022-11-27T08:45:40.254Z,1.73
2022-11-27T08:50:43.953Z,1.40
2022-11-27T08:55:49.062Z,1.50
2022-11-27T09:00:52.612Z,1.33
2022-11-27T09:05:56.208Z,1.60
2022-11-27T09:11:04.320Z,1.50
2022-11-27T09:16:12.736Z,1.40
2022-11-27T09:21:19.144Z,1.50
2022-11-27T09:26:25.823Z,1.40
2022-11-27T09:31:29.627Z,1.50
2022-11-27T09:36:33.286Z,1.50
2022-11-27T09:41:46.927Z,1.50
2022-11-27T09:46:51.645Z,1.45
2022-11-27T09:52:03.022Z,1.48
2022-11-27T09:57:10.940Z,1.60
2022-11-27T10:07:39.206Z,1.40
2022-11-27T10:12:57.074Z,1.38
2022-11-27T10:18:10.586Z,1.25
2022-11-27T10:23:28.739Z,1.30
2022-11-27T10:28:41.348Z,1.50
2022-11-27T10:33:50.613Z,1.42
2022-11-27T10:38:56.773Z,1.40
2022-11-27T10:44:26.706Z,1.35
2022-11-27T10:49:30.399Z,1.30
2022-11-27T10:54:39.751Z,1.38
2022-11-27T10:59:54.659Z,1.40
2022-11-27T11:05:23.936Z,1.40
2022-11-27T11:10:32.094Z,1.38
2022-11-27T11:15:58.456Z,1.40
2022-11-27T11:21:07.203Z,1.23
2022-11-27T11:26:26.820Z,1.23
2022-11-27T11:31:36.446Z,1.40
2022-11-27T11:36:40.157Z,1.30
2022-11-27T11:41:47.827Z,1.40
2022-11-27T11:46:55.905Z,1.38
2022-11-27T11:52:36.361Z,1.30
2022-11-27T11:58:20.156Z,1.30
2022-11-27T12:03:59.522Z,1.40
2022-11-27T12:09:21.872Z,1.30
2022-11-27T12:14:45.388Z,1.50
2022-11-27T12:20:19.756Z,1.40
2022-11-27T12:25:33.958Z,1.30
2022-11-27T12:30:48.473Z,1.55
2022-11-27T12:36:01.715Z,1.30
2022-11-27T12:41:29.842Z,1.50
2022-11-27T12:46:37.541Z,1.40
2022-11-27T12:51:49.076Z,1.52
2022-11-27T12:56:58.682Z,1.30
2022-11-27T13:02:24.627Z,1.40
2022-11-27T13:07:40.342Z,1.40
2022-11-27T13:12:50.986Z,1.35
2022-11-27T13:18:04.579Z,1.30
2022-11-27T13:23:09.476Z,1.30
2022-11-27T13:28:27.790Z,1.30
2022-11-27T13:33:41.305Z,1.38
2022-11-27T13:38:46.510Z,1.38
2022-11-27T13:43:50.585Z,1.30
2022-11-27T13:49:00.644Z,1.40
2022-11-27T13:54:16.187Z,1.30
2022-11-27T13:59:23.496Z,1.40
2022-11-27T14:04:27.705Z,1.53
2022-11-27T14:09:40.181Z,1.40
2022-11-27T14:14:45.651Z,1.40
2022-11-27T14:20:04.838Z,1.30
2022-11-27T14:25:23.309Z,1.50
2022-11-27T14:30:34.996Z,1.40
2022-11-27T14:35:38.722Z,1.40
2022-11-27T14:40:44.873Z,1.30
2022-11-27T14:45:53.384Z,1.30
2022-11-27T14:50:58.977Z,1.27
2022-11-27T14:56:05.181Z,1.60
2022-11-27T15:01:10.093Z,1.42
2022-11-27T15:06:21.174Z,1.40
2022-11-27T15:11:54.013Z,1.50
2022-11-27T15:16:52.989Z,1.30
2022-11-27T15:21:57.736Z,1.30
2022-11-27T15:27:26.802Z,1.33
2022-11-27T15:32:52.359Z,1.23
2022-11-27T15:37:58.286Z,1.40
2022-11-27T15:43:03.960Z,1.55
2022-11-27T15:48:17.277Z,1.30
2022-11-27T15:53:20.809Z,1.17
2022-11-27T15:58:25.888Z,1.25
2022-11-27T16:03:30.448Z,1.45
2022-11-27T16:08:34.386Z,1.20
2022-11-27T16:13:39.404Z,1.50
2022-11-27T16:18:45.198Z,1.17
2022-11-27T16:23:48.918Z,1.38
2022-11-27T16:28:54.025Z,1.30
2022-11-27T16:33:57.672Z,1.50
2022-11-27T16:39:02.351Z,1.20
2022-11-27T16:44:13.486Z,1.33
2022-11-27T16:49:17.148Z,1.33
2022-11-27T16:54:21.097Z,1.40
2022-11-27T16:59:26.636Z,1.40
2022-11-27T17:04:30.634Z,1.40
2022-11-27T17:09:34.306Z,1.50
2022-11-27T17:14:39.676Z,1.45
2022-11-27T17:19:44.769Z,1.40
2022-11-27T17:24:48.521Z,1.45
2022-11-27T17:29:53.973Z,1.30
2022-11-27T17:34:57.797Z,1.30
2022-11-27T17:40:01.696Z,1.58
2022-11-27T17:45:08.469Z,1.52
2022-11-27T17:50:13.944Z,1.35
2022-11-27T17:55:18.296Z,1.30
2022-11-27T18:00:24.258Z,1.33
2022-11-27T18:05:27.957Z,1.50
2022-11-27T18:10:32.191Z,1.38
2022-11-27T18:15:37.668Z,1.40
2022-11-27T18:20:41.572Z,1.40
2022-11-27T18:25:48.931Z,1.30
2022-11-27T18:30:54.227Z,1.40
2022-11-27T18:35:57.846Z,1.38
2022-11-27T18:41:08.413Z,1.40
2022-11-27T18:46:15.992Z,1.40
2022-11-27T18:51:23.367Z,1.60
2022-11-27T18:56:30.596Z,1.20
2022-11-27T19:01:42.281Z,1.30
2022-11-27T19:06:46.583Z,1.38
2022-11-27T19:11:50.315Z,1.30
2022-11-27T19:16:56.649Z,1.20
2022-11-27T19:22:00.634Z,1.50
2022-11-27T19:27:04.844Z,1.38
2022-11-27T19:32:10.162Z,1.25
2022-11-27T19:37:13.797Z,1.70
2022-11-27T19:42:17.584Z,1.45
2022-11-27T19:47:22.752Z,1.50
2022-11-27T19:52:26.446Z,1.40
2022-11-27T19:57:30.101Z,1.48
2022-11-27T20:02:38.536Z,1.48
2022-11-27T20:07:42.268Z,1.60
2022-11-27T20:12:46.441Z,1.50
2022-11-27T20:17:51.467Z,1.50
2022-11-27T20:22:55.103Z,1.40
2022-11-27T20:27:58.794Z,1.55
2022-11-27T20:33:07.516Z,1.70
2022-11-27T20:38:12.071Z,1.67
2022-11-27T20:43:16.461Z,1.30
2022-11-27T20:48:21.650Z,1.52
2022-11-27T20:53:25.488Z,1.52
2022-11-27T20:58:29.767Z,1.60
2022-11-27T21:03:35.882Z,1.48
2022-11-27T21:08:40.026Z,1.35
2022-11-27T21:13:44.064Z,1.60
2022-11-27T21:18:49.847Z,1.52
2022-11-27T21:23:54.718Z,1.40
2022-11-27T21:28:58.561Z,1.58
2022-11-27T21:34:06.679Z,1.20
2022-11-27T21:39:20.099Z,1.30
2022-11-27T21:44:26.175Z,1.70
2022-11-27T21:49:31.796Z,1.80
2022-11-27T21:54:36.673Z,1.45
2022-11-27T21:59:40.633Z,1.50
2022-11-27T22:04:45.682Z,1.67
2022-11-27T22:09:49.312Z,1.70
2022-11-27T22:14:52.866Z,1.52
2022-11-27T22:19:57.848Z,1.60
2022-11-27T22:25:04.291Z,1.40
2022-11-27T22:30:10.544Z,1.70
2022-11-27T22:35:16.343Z,1.42
2022-11-27T22:40:20.824Z,1.50
2022-11-27T22:45:25.076Z,1.40
2022-11-27T22:50:30.515Z,1.63
2022-11-27T22:55:36.506Z,1.45
2022-11-27T23:00:40.063Z,1.55
2022-11-27T23:05:47.725Z,1.50
2022-11-27T23:10:52.392Z,1.65
2022-11-27T23:15:56.032Z,1.40
2022-11-27T23:21:01.436Z,1.70
2022-11-27T23:26:06.859Z,1.48
2022-11-27T23:31:31.305Z,1.30
2022-11-27T23:36:38.585Z,1.50
2022-11-27T23:41:42.619Z,1.38
2022-11-27T23:46:46.282Z,1.42
2022-11-27T23:51:52.199Z,1.50
2022-11-27T23:56:56.259Z,1.38
